Time;durP1;ratioP1;P1;durP2;ratioP2;P2;SDS_P1;SDS_P2;PMS_P1;PMS_P2;Temp;Humidity;BMP_temperature;BMP_pressure;BME280_temperature;BME280_humidity;BME280_pressure;Samples;Min_cycle;Max_cycle;Signal;HPM_P1;HPM_P2
2023/06/27 00:00:37;;;;;;;7.18;4.38;;;12.50;99.90;;;;;;5119670;27;20084;-27
2023/06/27 00:03:03;;;;;;;9.00;4.47;;;12.60;99.90;;;;;;5138199;27;20046;-28
2023/06/27 00:05:30;;;;;;;8.40;4.15;;;12.60;99.90;;;;;;5137887;27;20092;-27
2023/06/27 00:07:56;;;;;;;12.38;4.65;;;12.60;99.90;;;;;;5137822;27;20492;-27
2023/06/27 00:10:22;;;;;;;11.35;4.93;;;12.60;99.90;;;;;;5138234;27;20043;-27
2023/06/27 00:12:47;;;;;;;11.63;4.82;;;12.70;99.90;;;;;;5137732;27;20091;-27
2023/06/27 00:15:13;;;;;;;7.18;4.00;;;12.70;99.90;;;;;;5138290;27;20135;-27
2023/06/27 00:17:40;;;;;;;8.25;4.55;;;12.70;99.90;;;;;;5102816;27;20476;-28
2023/06/27 00:20:11;;;;;;;9.65;4.32;;;12.70;99.90;;;;;;5137578;27;20051;-27
2023/06/27 00:22:40;;;;;;;8.90;4.45;;;12.70;99.90;;;;;;5103795;27;20077;-28
2023/06/27 00:25:12;;;;;;;9.18;4.50;;;12.80;99.90;;;;;;5137490;27;20054;-27
2023/06/27 00:27:39;;;;;;;10.23;4.20;;;12.80;99.90;;;;;;5137474;27;20051;-28
2023/06/27 00:30:05;;;;;;;7.72;4.40;;;12.90;99.90;;;;;;5136881;27;20481;-27
2023/06/27 00:32:31;;;;;;;6.95;4.47;;;12.80;99.90;;;;;;5120096;27;20055;-27
2023/06/27 00:34:57;;;;;;;9.40;4.30;;;12.80;99.90;;;;;;5119569;27;20050;-27
2023/06/27 00:37:22;;;;;;;12.10;4.72;;;12.80;99.90;;;;;;5137586;27;20061;-27
2023/06/27 00:39:48;;;;;;;6.63;4.85;;;12.80;99.90;;;;;;5136849;27;20040;-28
2023/06/27 00:42:14;;;;;;;11.43;5.13;;;12.80;99.90;;;;;;5118253;27;20039;-27
2023/06/27 00:44:40;;;;;;;8.13;4.70;;;12.80;99.90;;;;;;5119854;27;20051;-27
2023/06/27 00:47:06;;;;;;;9.23;5.10;;;12.70;99.90;;;;;;5137144;27;20100;-27
2023/06/27 00:49:32;;;;;;;9.25;4.47;;;12.70;99.90;;;;;;5136965;27;20079;-27
2023/06/27 00:51:59;;;;;;;8.63;4.43;;;12.70;99.90;;;;;;5136971;27;20047;-27
2023/06/27 00:54:25;;;;;;;10.15;4.70;;;12.70;99.90;;;;;;5136382;27;20426;-27
2023/06/27 00:56:55;;;;;;;8.52;4.78;;;12.70;99.90;;;;;;5137458;27;20092;-27
2023/06/27 00:59:22;;;;;;;9.95;4.63;;;12.70;99.90;;;;;;5136832;27;20051;-27
2023/06/27 01:01:48;;;;;;;14.98;4.97;;;12.70;99.90;;;;;;5118720;27;20053;-27
2023/06/27 01:04:14;;;;;;;9.65;4.07;;;12.70;99.90;;;;;;5136375;27;20485;-27
2023/06/27 01:06:52;;;;;;;11.10;4.35;;;12.70;99.90;;;;;;5101583;27;20511;-27
2023/06/27 01:09:24;;;;;;;16.80;4.40;;;12.80;99.90;;;;;;5137227;27;20039;-27
2023/06/27 01:12:05;;;;;;;9.23;5.30;;;12.80;99.90;;;;;;5118383;27;20093;-27
2023/06/27 01:14:33;;;;;;;9.18;4.88;;;12.80;99.90;;;;;;5136577;27;20484;-27
2023/06/27 01:17:00;;;;;;;6.50;4.82;;;12.70;99.90;;;;;;5136749;27;20050;-28
2023/06/27 01:19:30;;;;;;;13.07;4.60;;;12.70;99.90;;;;;;5136420;27;20081;-27
2023/06/27 01:22:08;;;;;;;12.00;4.68;;;12.60;99.90;;;;;;5136395;27;20046;-27
2023/06/27 01:24:36;;;;;;;11.77;4.18;;;12.50;99.90;;;;;;5136408;27;20050;-27
2023/06/27 01:27:03;;;;;;;7.35;4.47;;;12.30;99.90;;;;;;5136320;27;20058;-27
2023/06/27 01:29:29;;;;;;;6.97;4.32;;;12.10;99.90;;;;;;5135823;27;20480;-27
2023/06/27 01:32:29;;;;;;;9.38;4.85;;;12.00;99.90;;;;;;5136191;27;20043;-27
2023/06/27 01:35:07;;;;;;;7.40;4.57;;;11.80;99.90;;;;;;5096453;27;20496;-27
2023/06/27 01:37:38;;;;;;;9.27;5.30;;;11.60;99.90;;;;;;5135858;27;20507;-27
2023/06/27 01:40:10;;;;;;;9.60;4.90;;;11.50;99.90;;;;;;5136656;27;20080;-27
2023/06/27 01:42:42;;;;;;;10.43;5.10;;;11.50;99.90;;;;;;5136889;27;20172;-29
2023/06/27 01:45:10;;;;;;;11.50;5.18;;;11.50;99.90;;;;;;5118747;27;20054;-27
2023/06/27 01:47:40;;;;;;;10.05;5.22;;;11.40;99.90;;;;;;5101109;27;20082;-27
2023/06/27 01:50:08;;;;;;;8.93;4.85;;;11.40;99.90;;;;;;5117427;27;20046;-28
2023/06/27 01:52:33;;;;;;;9.98;5.22;;;11.40;99.90;;;;;;5135722;27;20059;-27
2023/06/27 01:54:59;;;;;;;9.75;5.60;;;11.40;99.90;;;;;;5100244;27;20047;-28
2023/06/27 01:57:25;;;;;;;9.77;5.03;;;11.50;99.90;;;;;;5117619;27;20062;-28
2023/06/27 01:59:52;;;;;;;12.07;5.25;;;11.60;99.90;;;;;;5135620;27;20472;-27
2023/06/27 02:02:18;;;;;;;9.85;4.80;;;11.60;99.90;;;;;;5084054;27;20100;-27
2023/06/27 02:04:45;;;;;;;7.53;5.10;;;11.60;99.90;;;;;;5117426;27;20055;-28
2023/06/27 02:07:11;;;;;;;7.68;4.53;;;11.60;99.90;;;;;;5135511;27;20125;-28
2023/06/27 02:09:36;;;;;;;9.60;5.38;;;11.40;99.90;;;;;;5135371;27;20039;-28
2023/06/27 02:12:04;;;;;;;8.40;5.22;;;11.30;99.90;;;;;;5135383;27;20039;-28
2023/06/27 02:14:30;;;;;;;8.35;4.97;;;11.20;99.90;;;;;;5135339;27;20051;-28
2023/06/27 02:16:56;;;;;;;7.85;4.75;;;11.00;99.90;;;;;;5117023;27;20058;-28
2023/06/27 02:19:23;;;;;;;9.43;5.30;;;10.80;99.90;;;;;;5100026;27;20035;-28
2023/06/27 02:21:49;;;;;;;9.98;5.28;;;10.70;99.90;;;;;;5135257;27;20050;-29
2023/06/27 02:24:15;;;;;;;7.32;5.20;;;10.60;99.90;;;;;;5135178;27;20051;-28
2023/06/27 02:26:41;;;;;;;7.60;5.25;;;10.50;99.90;;;;;;5135704;27;20047;-28
2023/06/27 02:29:07;;;;;;;10.82;6.00;;;10.40;99.90;;;;;;5134942;27;20050;-27
2023/06/27 02:31:32;;;;;;;8.95;6.03;;;10.30;99.90;;;;;;5135626;27;20039;-28
2023/06/27 02:33:59;;;;;;;8.55;5.85;;;10.20;99.90;;;;;;5117669;27;20043;-28
2023/06/27 02:36:27;;;;;;;7.78;5.63;;;10.20;99.90;;;;;;5134982;27;20051;-28
2023/06/27 02:38:56;;;;;;;9.65;6.40;;;10.10;99.90;;;;;;5101023;27;20043;-27
2023/06/27 02:41:22;;;;;;;12.18;6.70;;;10.10;99.90;;;;;;5134935;27;20050;-28
2023/06/27 02:43:48;;;;;;;10.77;5.95;;;10.10;99.90;;;;;;5117645;27;20043;-27
2023/06/27 02:46:14;;;;;;;13.88;6.78;;;10.10;99.90;;;;;;5116823;27;20047;-27
2023/06/27 02:48:40;;;;;;;11.27;6.30;;;10.10;99.90;;;;;;5117224;27;20045;-28
2023/06/27 02:51:06;;;;;;;11.73;6.80;;;10.10;99.90;;;;;;5134824;27;20051;-28
2023/06/27 02:53:32;;;;;;;11.80;6.15;;;10.10;99.90;;;;;;5116609;28;20564;-28
2023/06/27 02:56:02;;;;;;;10.63;6.80;;;10.10;99.90;;;;;;5135069;27;20388;-28
2023/06/27 02:58:31;;;;;;;13.05;6.40;;;10.10;99.90;;;;;;5100756;28;20125;-27
2023/06/27 03:01:03;;;;;;;10.35;6.45;;;10.20;99.90;;;;;;5134683;27;20039;-28
2023/06/27 03:03:29;;;;;;;12.23;6.38;;;10.20;99.90;;;;;;5134711;28;20043;-28
2023/06/27 03:05:55;;;;;;;13.10;6.47;;;10.30;99.90;;;;;;5134045;27;20054;-27
2023/06/27 03:08:21;;;;;;;10.55;6.90;;;10.30;99.90;;;;;;5099307;28;20051;-27
2023/06/27 03:10:46;;;;;;;8.63;6.05;;;10.40;99.90;;;;;;5135432;28;20042;-28
2023/06/27 03:13:12;;;;;;;10.75;6.32;;;10.40;99.90;;;;;;5134511;28;20047;-27
2023/06/27 03:15:38;;;;;;;11.45;6.30;;;10.40;99.90;;;;;;5134533;28;20086;-28
2023/06/27 03:18:03;;;;;;;7.50;6.05;;;10.30;99.90;;;;;;5134484;28;20143;-28
2023/06/27 03:20:29;;;;;;;12.73;6.32;;;10.30;99.90;;;;;;5134539;28;20084;-28
2023/06/27 03:22:55;;;;;;;9.90;6.30;;;10.30;99.90;;;;;;5134260;28;20108;-27
2023/06/27 03:25:21;;;;;;;7.93;5.80;;;10.20;99.90;;;;;;5134474;28;20131;-27
2023/06/27 03:27:46;;;;;;;8.30;5.70;;;10.30;99.90;;;;;;5135260;28;20043;-28
2023/06/27 03:30:13;;;;;;;10.63;5.90;;;10.20;99.90;;;;;;5116067;28;20035;-28
2023/06/27 03:32:39;;;;;;;10.73;5.90;;;10.20;99.90;;;;;;5134459;28;20096;-27
2023/06/27 03:35:05;;;;;;;10.13;5.82;;;10.30;99.90;;;;;;5134405;28;20043;-27
2023/06/27 03:37:31;;;;;;;11.60;5.68;;;10.40;99.90;;;;;;5134962;28;20082;-27
2023/06/27 03:39:57;;;;;;;13.77;6.40;;;10.50;99.90;;;;;;5116498;28;20093;-27
2023/06/27 03:42:23;;;;;;;8.57;5.38;;;10.80;99.90;;;;;;5116024;28;20035;-27
2023/06/27 03:44:49;;;;;;;13.27;5.63;;;10.90;99.90;;;;;;5116239;28;20130;-28
2023/06/27 03:47:15;;;;;;;10.27;5.43;;;11.10;99.90;;;;;;5133908;28;20131;-28
2023/06/27 03:49:41;;;;;;;10.15;5.55;;;11.20;99.90;;;;;;5116041;28;20050;-28
2023/06/27 03:52:06;;;;;;;8.90;4.53;;;11.40;99.90;;;;;;5134205;28;20043;-28
2023/06/27 03:54:32;;;;;;;10.18;4.85;;;11.50;99.90;;;;;;5134532;28;20119;-28
2023/06/27 03:56:58;;;;;;;13.88;4.93;;;11.60;99.90;;;;;;5134149;28;20365;-27
2023/06/27 03:59:24;;;;;;;10.50;4.78;;;11.70;99.90;;;;;;5134670;28;20054;-28
2023/06/27 04:01:49;;;;;;;10.38;5.30;;;11.80;99.90;;;;;;5134644;28;20465;-27
2023/06/27 04:04:15;;;;;;;6.95;4.63;;;11.90;99.90;;;;;;5133765;28;20108;-27
2023/06/27 04:06:41;;;;;;;9.85;4.95;;;12.00;99.90;;;;;;5134919;28;20071;-28
2023/06/27 04:09:07;;;;;;;7.25;3.83;;;12.10;99.90;;;;;;5134238;28;20050;-27
2023/06/27 04:11:33;;;;;;;10.00;4.05;;;12.20;99.90;;;;;;5134052;28;20384;-28
2023/06/27 04:14:02;;;;;;;9.38;4.75;;;12.20;99.90;;;;;;5115965;28;20039;-28
2023/06/27 04:16:28;;;;;;;7.43;4.03;;;12.30;99.90;;;;;;5133934;27;20452;-28
2023/06/27 04:18:54;;;;;;;8.50;3.85;;;12.40;99.90;;;;;;5137446;27;20082;-27
2023/06/27 04:21:21;;;;;;;7.28;3.72;;;12.50;99.90;;;;;;5137563;27;20130;-27
2023/06/27 04:23:47;;;;;;;8.05;4.00;;;12.70;99.90;;;;;;5137553;27;20043;-27
2023/06/27 04:26:15;;;;;;;7.70;3.30;;;12.80;99.90;;;;;;5137513;27;20055;-27
2023/06/27 04:28:44;;;;;;;10.40;4.40;;;13.10;99.90;;;;;;5137344;27;20575;-27
2023/06/27 04:31:10;;;;;;;10.80;3.70;;;13.20;99.90;;;;;;5120178;27;20047;-27
2023/06/27 04:33:39;;;;;;;6.78;3.67;;;13.40;99.90;;;;;;5137895;27;20369;-27
2023/06/27 04:36:15;;;;;;;11.32;3.88;;;13.50;99.90;;;;;;5137342;27;20051;-27
2023/06/27 04:38:42;;;;;;;7.20;3.13;;;13.60;99.90;;;;;;5137843;27;20043;-27
2023/06/27 04:41:09;;;;;;;10.40;3.38;;;13.60;99.90;;;;;;5118899;27;20476;-27
2023/06/27 04:43:36;;;;;;;6.95;3.15;;;13.60;99.90;;;;;;5137162;27;20492;-27
2023/06/27 04:46:02;;;;;;;10.93;3.42;;;13.70;99.90;;;;;;5137060;27;20069;-27
2023/06/27 04:48:28;;;;;;;9.95;2.92;;;13.70;99.90;;;;;;5137501;27;20468;-27
2023/06/27 04:50:55;;;;;;;6.65;3.92;;;13.90;99.90;;;;;;5136885;27;20078;-27
2023/06/27 04:53:21;;;;;;;7.53;3.67;;;14.00;99.90;;;;;;5136952;27;20130;-27
2023/06/27 04:55:48;;;;;;;4.82;2.78;;;14.10;99.90;;;;;;5101943;27;20143;-27
2023/06/27 04:58:14;;;;;;;8.15;3.28;;;14.20;99.90;;;;;;5137451;27;20132;-27
2023/06/27 05:00:40;;;;;;;9.20;3.30;;;14.30;99.90;;;;;;5136829;27;20087;-27
2023/06/27 05:03:06;;;;;;;5.43;2.88;;;14.40;99.90;;;;;;5136767;27;20043;-27
2023/06/27 05:05:33;;;;;;;7.65;3.78;;;14.50;99.90;;;;;;5118836;27;20100;-27
2023/06/27 05:08:06;;;;;;;7.25;2.83;;;14.60;99.90;;;;;;5118342;27;20057;-27
2023/06/27 05:10:31;;;;;;;11.80;3.75;;;14.70;99.90;;;;;;5118345;27;20043;-27
2023/06/27 05:12:58;;;;;;;7.50;3.03;;;14.80;99.90;;;;;;5136636;27;20039;-27
2023/06/27 05:15:24;;;;;;;7.35;3.45;;;14.90;99.90;;;;;;5136626;27;20055;-27
2023/06/27 05:18:06;;;;;;;10.35;3.92;;;15.10;99.90;;;;;;5136531;27;20043;-28
2023/06/27 05:20:31;;;;;;;5.97;2.63;;;15.40;99.90;;;;;;5136506;27;20050;-28
2023/06/27 05:22:57;;;;;;;7.07;2.45;;;16.00;99.90;;;;;;5137007;27;20047;-27
2023/06/27 05:25:23;;;;;;;8.10;3.20;;;16.40;99.90;;;;;;5136391;27;20373;-27
2023/06/27 05:27:48;;;;;;;9.02;2.92;;;16.70;99.90;;;;;;5100845;27;20100;-27
2023/06/27 05:30:14;;;;;;;7.07;3.15;;;17.00;50.80;;;;;;5117760;27;20039;-27
2023/06/27 05:32:40;;;;;;;4.47;2.58;;;16.80;1.00;;;;;;5136218;27;20370;-28
2023/06/27 05:35:07;;;;;;;18.23;4.88;;;16.90;49.60;;;;;;5135815;27;20050;-27
2023/06/27 05:37:33;;;;;;;6.07;2.35;;;17.30;1.00;;;;;;5136089;27;20043;-27
2023/06/27 05:39:58;;;;;;;11.60;2.35;;;17.90;99.90;;;;;;5136095;27;20038;-27
2023/06/27 05:42:24;;;;;;;18.23;2.83;;;18.30;1.00;;;;;;5136049;27;20480;-27
2023/06/27 05:44:50;;;;;;;4.72;1.73;;;18.50;1.00;;;;;;5083762;27;20086;-27
2023/06/27 05:47:16;;;;;;;7.28;1.63;;;18.80;99.90;;;;;;5136208;27;20047;-27
2023/06/27 05:49:41;;;;;;;4.88;1.60;;;18.90;1.00;;;;;;5117533;27;20389;-27
2023/06/27 05:52:07;;;;;;;8.60;1.85;;;19.00;99.90;;;;;;5135774;27;20047;-27
2023/06/27 05:54:33;;;;;;;5.60;1.77;;;19.10;99.90;;;;;;5135850;27;20051;-29
2023/06/27 05:56:58;;;;;;;5.20;1.88;;;19.20;1.00;;;;;;5135731;27;20404;-27
2023/06/27 05:59:24;;;;;;;6.60;1.80;;;19.30;33.70;;;;;;5118389;27;20058;-29
2023/06/27 06:01:50;;;;;;;6.10;1.20;;;19.50;1.00;;;;;;5135623;27;20043;-27
2023/06/27 06:04:16;;;;;;;5.90;2.03;;;19.40;99.90;;;;;;5135835;27;20047;-27
2023/06/27 06:06:41;;;;;;;4.10;1.27;;;19.50;1.00;;;;;;5135892;27;20464;-27
2023/06/27 06:09:07;;;;;;;3.45;1.20;;;19.60;99.90;;;;;;5135463;27;20105;-27
2023/06/27 06:11:36;;;;;;;5.28;1.00;;;19.60;99.90;;;;;;5135748;27;20465;-27
2023/06/27 06:14:03;;;;;;;6.95;1.65;;;19.60;99.90;;;;;;5117162;27;20065;-29
2023/06/27 06:16:33;;;;;;;7.13;1.73;;;20.00;1.00;;;;;;5100637;27;20107;-28
2023/06/27 06:19:03;;;;;;;8.43;1.10;;;20.00;99.90;;;;;;5135317;27;20143;-27
2023/06/27 06:21:30;;;;;;;5.97;1.27;;;20.00;99.90;;;;;;5116914;27;20115;-28
2023/06/27 06:23:56;;;;;;;6.55;1.10;;;20.50;99.90;;;;;;5116903;27;20049;-27
2023/06/27 06:26:22;;;;;;;7.78;1.48;;;20.60;99.90;;;;;;5135198;27;20043;-27
2023/06/27 06:28:47;;;;;;;5.28;1.13;;;20.20;24.20;;;;;;5116892;27;20091;-27
2023/06/27 06:31:17;;;;;;;7.65;0.82;;;20.30;47.20;;;;;;5134799;27;20043;-27
2023/06/27 06:33:44;;;;;;;6.10;0.98;;;20.30;17.90;;;;;;5135083;27;20047;-27
2023/06/27 06:36:10;;;;;;;5.97;0.90;;;20.30;20.90;;;;;;5116600;27;20055;-27
2023/06/27 06:38:36;;;;;;;9.18;1.30;;;20.50;17.90;;;;;;5135773;27;20108;-28
2023/06/27 06:41:02;;;;;;;6.28;1.15;;;20.50;99.90;;;;;;5134209;27;20035;-28
2023/06/27 06:43:28;;;;;;;5.93;0.93;;;20.70;99.90;;;;;;5116824;27;20058;-26
2023/06/27 06:45:54;;;;;;;8.13;1.30;;;20.80;99.90;;;;;;5117079;27;20047;-27
2023/06/27 06:48:20;;;;;;;6.90;0.73;;;20.70;99.90;;;;;;5134840;27;20051;-28
2023/06/27 06:50:46;;;;;;;4.30;1.00;;;20.50;1.00;;;;;;5134695;27;20045;-27
2023/06/27 06:53:12;;;;;;;2.65;0.77;;;20.60;99.90;;;;;;5134816;27;20043;-27
2023/06/27 06:55:38;;;;;;;11.40;1.33;;;20.70;99.90;;;;;;5134298;27;20058;-28
2023/06/27 06:58:04;;;;;;;10.38;1.08;;;20.70;99.90;;;;;;5116686;27;20059;-27
2023/06/27 07:00:30;;;;;;;5.45;1.05;;;20.90;93.20;;;;;;5134971;27;20485;-27
2023/06/27 07:02:56;;;;;;;5.25;0.90;;;20.90;1.00;;;;;;5116823;28;20047;-26
2023/06/27 07:05:22;;;;;;;3.05;1.05;;;21.00;99.90;;;;;;5134687;28;20035;-26
2023/06/27 07:07:48;;;;;;;5.65;0.95;;;21.10;99.90;;;;;;5134685;28;20537;-27
2023/06/27 07:10:14;;;;;;;5.85;0.70;;;20.70;99.90;;;;;;5134495;28;20047;-27
2023/06/27 07:12:40;;;;;;;5.82;0.93;;;20.90;99.90;;;;;;5134577;28;20043;-27
2023/06/27 07:15:07;;;;;;;8.18;1.77;;;20.60;99.90;;;;;;5099283;28;20492;-27
2023/06/27 07:17:33;;;;;;;2.65;1.05;;;20.30;99.90;;;;;;5134512;28;20099;-28
2023/06/27 07:19:59;;;;;;;7.35;1.25;;;20.30;1.00;;;;;;5134541;28;20122;-27
2023/06/27 07:22:25;;;;;;;7.55;0.95;;;20.20;99.90;;;;;;5134505;28;20043;-28
2023/06/27 07:24:51;;;;;;;2.75;0.70;;;20.50;99.90;;;;;;5134778;28;20050;-27
2023/06/27 07:27:16;;;;;;;3.88;0.60;;;20.20;99.90;;;;;;5116116;28;20133;-27
2023/06/27 07:29:42;;;;;;;4.20;0.98;;;19.80;1.00;;;;;;5082185;28;20053;-27
2023/06/27 07:32:10;;;;;;;3.38;0.82;;;19.70;1.00;;;;;;5116229;28;20086;-26
2023/06/27 07:34:37;;;;;;;3.78;0.90;;;20.10;99.90;;;;;;5134928;28;20058;-27
2023/06/27 07:37:03;;;;;;;4.43;1.00;;;20.60;99.90;;;;;;5117135;28;20092;-27
2023/06/27 07:39:29;;;;;;;6.20;1.15;;;20.60;99.90;;;;;;5134318;28;20401;-28
2023/06/27 07:41:55;;;;;;;3.70;1.15;;;20.40;92.10;;;;;;5134612;28;20039;-27
2023/06/27 07:44:20;;;;;;;8.07;1.10;;;20.20;1.00;;;;;;5134835;28;20100;-28
2023/06/27 07:46:46;;;;;;;3.35;0.63;;;20.80;99.90;;;;;;5134523;28;20043;-26
2023/06/27 07:49:12;;;;;;;4.68;0.68;;;21.90;50.20;;;;;;5134187;28;20043;-28
2023/06/27 07:51:38;;;;;;;4.82;1.10;;;22.10;1.00;;;;;;5136730;27;20484;-27
2023/06/27 07:54:03;;;;;;;6.00;0.82;;;22.00;1.00;;;;;;5138723;27;20051;-28
2023/06/27 07:56:29;;;;;;;3.88;0.70;;;21.60;1.00;;;;;;5137929;27;20208;-28
2023/06/27 07:58:55;;;;;;;7.22;0.93;;;21.50;1.00;;;;;;5138588;27;20054;-27
2023/06/27 08:01:21;;;;;;;1.98;0.80;;;21.80;1.00;;;;;;5119800;27;20043;-27
2023/06/27 08:03:47;;;;;;;2.85;0.47;;;22.30;1.00;;;;;;5137941;27;20130;-27
2023/06/27 08:06:14;;;;;;;3.38;0.60;;;22.00;99.90;;;;;;5138182;27;20081;-28
2023/06/27 08:08:40;;;;;;;2.92;0.82;;;21.10;99.90;;;;;;5120027;27;20051;-28
2023/06/27 08:11:06;;;;;;;6.35;0.75;;;20.70;1.00;;;;;;5119045;27;20121;-28
2023/06/27 08:13:32;;;;;;;5.30;1.67;;;20.60;1.00;;;;;;5137827;27;20039;-27
2023/06/27 08:15:57;;;;;;;2.33;0.63;;;20.70;1.00;;;;;;5137779;27;20559;-27
2023/06/27 08:18:23;;;;;;;5.85;1.20;;;20.30;99.90;;;;;;5137730;27;20492;-28
2023/06/27 08:20:49;;;;;;;4.68;0.90;;;20.20;99.90;;;;;;5119988;27;20122;-27
2023/06/27 08:23:15;;;;;;;3.83;0.60;;;20.80;1.00;;;;;;5138425;27;20122;-27
2023/06/27 08:25:40;;;;;;;3.78;0.75;;;21.60;1.00;;;;;;5137821;27;20468;-27
2023/06/27 08:28:06;;;;;;;5.68;1.13;;;22.00;99.90;;;;;;5119118;27;20474;-28
2023/06/27 08:30:32;;;;;;;3.88;1.13;;;21.70;99.90;;;;;;5137386;27;20043;-27
2023/06/27 08:32:58;;;;;;;4.68;0.73;;;21.80;99.90;;;;;;5136647;27;20095;-26
2023/06/27 08:35:24;;;;;;;2.95;1.13;;;21.20;99.90;;;;;;5119561;27;20047;-27
2023/06/27 08:37:50;;;;;;;3.20;0.80;;;21.00;99.90;;;;;;5119254;27;20051;-27
2023/06/27 08:40:22;;;;;;;4.97;0.80;;;20.90;1.00;;;;;;5137301;27;20400;-26
2023/06/27 08:42:48;;;;;;;5.22;0.90;;;20.30;99.90;;;;;;5136905;27;20502;-27
2023/06/27 08:45:14;;;;;;;2.45;0.50;;;19.90;99.90;;;;;;5137154;27;20135;-28
2023/06/27 08:47:42;;;;;;;5.95;1.23;;;19.90;99.90;;;;;;5137110;27;20053;-27
2023/06/27 08:50:13;;;;;;;3.72;0.80;;;20.40;99.90;;;;;;5118264;27;20047;-27
2023/06/27 08:52:45;;;;;;;4.35;0.80;;;20.60;99.90;;;;;;5137709;27;20047;-27
2023/06/27 08:55:20;;;;;;;6.97;0.90;;;20.80;99.90;;;;;;5118442;27;20062;-27
2023/06/27 08:57:46;;;;;;;3.42;0.43;;;21.10;1.00;;;;;;5137344;27;20388;-28
2023/06/27 09:00:19;;;;;;;5.78;1.30;;;20.80;99.90;;;;;;5118745;27;20055;-29
2023/06/27 09:02:46;;;;;;;10.15;1.40;;;20.90;99.90;;;;;;5136657;27;20039;-27
2023/06/27 09:05:12;;;;;;;4.53;0.60;;;21.50;99.90;;;;;;5136834;27;20051;-28
2023/06/27 09:07:38;;;;;;;5.72;0.80;;;21.60;99.90;;;;;;5134328;27;20053;-27
2023/06/27 09:10:04;;;;;;;5.18;0.88;;;21.30;99.90;;;;;;5136560;27;20508;-27
2023/06/27 09:12:32;;;;;;;4.35;0.90;;;21.10;99.90;;;;;;5118318;27;20542;-28
2023/06/27 09:14:58;;;;;;;8.40;1.27;;;21.30;99.90;;;;;;5102409;27;20055;-28
2023/06/27 09:17:24;;;;;;;4.90;0.73;;;21.60;1.00;;;;;;5136815;27;20055;-28
2023/06/27 09:19:49;;;;;;;5.85;0.90;;;21.70;99.90;;;;;;5136847;27;20046;-27
2023/06/27 09:22:17;;;;;;;4.35;0.75;;;21.70;99.90;;;;;;5118052;27;20039;-28
2023/06/27 09:24:43;;;;;;;2.42;0.45;;;21.20;99.90;;;;;;5136434;27;20050;-27
2023/06/27 09:27:35;;;;;;;5.85;1.20;;;20.60;1.00;;;;;;5118073;27;20091;-28
2023/06/27 09:30:02;;;;;;;3.15;0.60;;;20.60;99.90;;;;;;5114061;27;20058;-27
2023/06/27 09:32:28;;;;;;;9.65;1.73;;;20.80;99.90;;;;;;5136241;27;20058;-28
2023/06/27 09:34:55;;;;;;;3.67;0.52;;;21.20;1.00;;;;;;5136172;27;20051;-27
2023/06/27 09:37:28;;;;;;;7.63;1.23;;;21.40;99.90;;;;;;5118338;27;20050;-27
2023/06/27 09:39:54;;;;;;;3.97;0.57;;;21.30;99.90;;;;;;5136770;27;20051;-27
2023/06/27 09:42:20;;;;;;;19.20;2.53;;;21.00;1.00;;;;;;5136073;27;20129;-28
2023/06/27 09:44:46;;;;;;;5.18;0.95;;;20.40;1.00;;;;;;5136008;27;20123;-27
2023/06/27 09:47:11;;;;;;;4.07;1.00;;;20.40;1.00;;;;;;5135944;27;20039;-27
2023/06/27 09:49:41;;;;;;;6.15;0.75;;;20.70;99.90;;;;;;5117691;27;20130;-28
2023/06/27 09:52:11;;;;;;;10.40;1.52;;;21.00;99.90;;;;;;5100752;27;20047;-29
2023/06/27 09:54:45;;;;;;;5.35;0.90;;;21.00;99.90;;;;;;5135577;27;20055;-27
2023/06/27 09:57:16;;;;;;;8.18;1.77;;;20.90;99.90;;;;;;5135728;27;20077;-27
2023/06/27 09:59:42;;;;;;;4.38;1.27;;;20.90;1.00;;;;;;5135790;27;20072;-28
2023/06/27 10:02:15;;;;;;;2.53;0.63;;;21.00;1.00;;;;;;5118408;27;20392;-28
2023/06/27 10:04:41;;;;;;;5.28;0.90;;;21.20;1.00;;;;;;5135677;27;20143;-28
2023/06/27 10:07:13;;;;;;;4.30;0.77;;;21.20;1.00;;;;;;5135570;27;20046;-28
2023/06/27 10:09:39;;;;;;;6.70;0.60;;;20.90;1.00;;;;;;5136144;27;20441;-27
2023/06/27 10:12:07;;;;;;;4.72;0.63;;;21.20;1.00;;;;;;5117381;27;20126;-27
2023/06/27 10:14:33;;;;;;;4.50;1.23;;;21.20;1.00;;;;;;5135937;27;20115;-27
2023/06/27 10:17:02;;;;;;;8.00;0.90;;;21.30;1.00;;;;;;5117115;27;20107;-26
2023/06/27 10:19:31;;;;;;;7.70;0.73;;;21.30;99.90;;;;;;5117245;27;20484;-27
2023/06/27 10:22:00;;;;;;;5.72;1.00;;;21.50;1.00;;;;;;5135333;27;20079;-27
2023/06/27 10:24:29;;;;;;;6.68;1.27;;;21.50;1.00;;;;;;5136108;27;20047;-27
2023/06/27 10:27:01;;;;;;;4.32;0.80;;;21.80;1.00;;;;;;5135184;27;20042;-27
2023/06/27 10:29:33;;;;;;;4.22;0.75;;;21.50;99.90;;;;;;5135028;27;20035;-27
2023/06/27 10:31:59;;;;;;;3.33;0.90;;;21.80;99.90;;;;;;5135417;27;20047;-27
2023/06/27 10:34:25;;;;;;;3.83;0.85;;;21.80;99.90;;;;;;5135081;27;20300;-27
2023/06/27 10:36:54;;;;;;;3.95;0.60;;;21.80;99.90;;;;;;5135057;27;20477;-27
2023/06/27 10:39:34;;;;;;;2.50;0.65;;;21.80;99.90;;;;;;5135003;27;20035;-28
2023/06/27 10:42:15;;;;;;;4.70;0.70;;;22.10;99.90;;;;;;5116600;27;20043;-27
2023/06/27 10:45:01;;;;;;;4.65;0.70;;;21.60;99.90;;;;;;5134966;27;20043;-28
2023/06/27 10:47:29;;;;;;;4.72;0.88;;;21.20;99.90;;;;;;5117128;27;20549;-28
2023/06/27 10:50:04;;;;;;;5.03;0.70;;;21.60;1.00;;;;;;5116601;27;20070;-27
2023/06/27 10:52:29;;;;;;;3.08;0.75;;;21.60;99.90;;;;;;5135154;27;20122;-27
2023/06/27 10:55:13;;;;;;;5.28;0.93;;;21.80;99.90;;;;;;5112825;28;20146;-27
2023/06/27 10:57:40;;;;;;;6.43;0.95;;;22.30;99.90;;;;;;5114215;28;20051;-27
2023/06/27 11:00:22;;;;;;;3.65;1.08;;;22.60;99.90;;;;;;5114282;28;20123;-27
2023/06/27 11:02:49;;;;;;;3.57;0.53;;;22.90;99.90;;;;;;5111865;28;20127;-27
2023/06/27 11:05:18;;;;;;;3.45;0.52;;;23.30;99.90;;;;;;5114026;28;20338;-26
2023/06/27 11:07:58;;;;;;;5.80;0.93;;;22.70;99.90;;;;;;5113726;28;20058;-27
2023/06/27 11:10:25;;;;;;;6.82;0.85;;;22.20;99.90;;;;;;5111534;28;20550;-26
2023/06/27 11:13:11;;;;;;;4.40;0.60;;;22.20;99.90;;;;;;5111900;28;20039;-28
2023/06/27 11:15:37;;;;;;;3.78;0.50;;;22.10;97.00;;;;;;5112815;28;20488;-27
2023/06/27 11:18:05;;;;;;;5.30;1.17;;;22.20;99.90;;;;;;5113065;28;20043;-28
2023/06/27 11:20:31;;;;;;;5.93;0.90;;;22.10;99.90;;;;;;5111269;28;20122;-28
2023/06/27 11:23:03;;;;;;;4.65;0.93;;;21.80;99.90;;;;;;5092709;28;20055;-27
2023/06/27 11:25:38;;;;;;;3.60;0.63;;;21.60;99.90;;;;;;5093576;28;20044;-29
2023/06/27 11:28:05;;;;;;;2.75;0.70;;;21.60;99.90;;;;;;5096393;28;20056;-27
2023/06/27 11:30:33;;;;;;;13.70;1.65;;;21.50;99.90;;;;;;5096460;28;20115;-29
2023/06/27 11:33:00;;;;;;;3.67;0.95;;;21.70;99.90;;;;;;5080086;28;20047;-27
2023/06/27 11:35:28;;;;;;;5.07;1.42;;;21.60;99.90;;;;;;5097668;28;20043;-27
2023/06/27 11:37:54;;;;;;;13.48;1.63;;;21.60;99.90;;;;;;5097627;28;20215;-28
2023/06/27 11:40:24;;;;;;;6.07;1.23;;;21.40;99.90;;;;;;5097513;28;20079;-27
2023/06/27 11:42:51;;;;;;;3.13;0.90;;;21.20;1.00;;;;;;5097460;28;20086;-27
2023/06/27 11:45:17;;;;;;;4.07;0.60;;;21.30;21.70;;;;;;5096272;28;20075;-27
2023/06/27 11:47:44;;;;;;;5.43;1.13;;;21.40;1.00;;;;;;5097338;28;20084;-27
2023/06/27 11:50:12;;;;;;;3.15;0.68;;;21.60;99.90;;;;;;5097234;28;20044;-27
2023/06/27 11:52:38;;;;;;;4.60;1.08;;;21.50;99.90;;;;;;5097265;28;20093;-28
2023/06/27 11:55:05;;;;;;;4.63;1.25;;;21.60;99.90;;;;;;5078879;28;20060;-27
2023/06/27 11:57:44;;;;;;;3.17;0.73;;;21.80;99.90;;;;;;5098001;28;20074;-28
2023/06/27 12:00:18;;;;;;;3.70;1.00;;;21.90;99.90;;;;;;5097051;28;20056;-27
2023/06/27 12:03:07;;;;;;;10.50;0.85;;;22.00;99.90;;;;;;5096868;28;20510;-27
2023/06/27 12:05:33;;;;;;;4.93;1.00;;;21.90;99.90;;;;;;5097774;28;20047;-26
2023/06/27 12:08:08;;;;;;;8.15;1.23;;;21.60;99.90;;;;;;5114402;28;20051;-26
2023/06/27 12:10:57;;;;;;;1.55;0.30;;;21.20;1.00;;;;;;5117169;28;20046;-27
2023/06/27 12:13:43;;;;;;;2.75;0.60;;;21.00;99.90;;;;;;5118181;28;20074;-28
2023/06/27 12:16:29;;;;;;;5.82;0.55;;;21.00;99.90;;;;;;5116968;27;20052;-27
2023/06/27 12:19:21;;;;;;;3.15;1.38;;;21.00;99.90;;;;;;5117798;28;20050;-27
2023/06/27 12:21:48;;;;;;;4.30;0.63;;;20.80;99.90;;;;;;5114780;28;20060;-27
2023/06/27 12:24:14;;;;;;;1.45;0.50;;;20.70;99.90;;;;;;5117081;28;20273;-27
2023/06/27 12:26:40;;;;;;;4.47;0.88;;;20.80;99.90;;;;;;5116063;28;20095;-27
2023/06/27 12:29:07;;;;;;;5.72;0.88;;;20.70;99.90;;;;;;5116802;28;20096;-28
2023/06/27 12:31:35;;;;;;;2.35;0.70;;;20.70;99.90;;;;;;5116932;28;20044;-28
2023/06/27 12:34:01;;;;;;;6.43;0.70;;;20.80;99.90;;;;;;5116247;28;20063;-27
2023/06/27 12:36:27;;;;;;;9.52;1.25;;;20.90;99.90;;;;;;5116906;28;20039;-28
2023/06/27 12:38:53;;;;;;;6.20;0.75;;;21.00;99.90;;;;;;5114937;28;20048;-27
2023/06/27 12:41:20;;;;;;;5.53;0.90;;;21.00;99.90;;;;;;5116738;28;20039;-28
2023/06/27 12:43:47;;;;;;;4.68;1.20;;;20.90;99.90;;;;;;5116852;28;20063;-27
2023/06/27 12:46:13;;;;;;;6.18;1.27;;;20.70;99.90;;;;;;5116671;28;20132;-27
2023/06/27 12:48:43;;;;;;;4.68;0.88;;;20.80;99.90;;;;;;5116796;28;20122;-28